Lu Verne, Iowa
Current Conditions -  °F | °C
As of 7:55 AM on Monday 22 Dec 2014 (Local Time) from KAXA Reporting Station
Unknown Precip Unknown Precip  
Wind Chill: 28°   Ceiling: 200
Heat Index: 37°   Visibility: 1mi
Dew Point: 37°   Wind: 16mph
Humidity: 100%   Direction: 150°SSE
Pressure: 29.59"   Gusts: NA
Location:  42.91°N, 94.07°W
Report Text: KAXA 221355Z AUTO 15014KT 1SM -UP OVC002 03/03 A2959 RMK AO2 P0001
Loading
Personal Weather Stations






























Interactive Weather Map New forecast layout! Learn more

10-Day Weather Forecast

Advertisements
Track Severe Weather on mobile